CEB136 RPVM-RPVE
Flight info
| Callsign | CEB136 |
|---|---|
| Flight time | 0h 34m |
| Altitude | 24000 |
| Route | N0450F240 DCT PARAO W6A ROX TR15 KLO DCT |
| Aircraft | A320/M-SDE3FGIRWY/LB1D1 |
Departure
| Time | 2026-04-30 07:26 |
|---|---|
| Airport | Mactan Cebu International Airport (RPVM) |
Arrival
| Time | 2026-04-30 08:00 |
|---|---|
| Airport | Godofredo P. Ramos Airport (RPVE) |
| Time | Latitude | Longitude | Altitude | Speed | Heading |
|---|---|---|---|---|---|
| 2026-04-30 06:49 | 10.31555 | 123.97968 | 37 ft | 0 kts | 315° |
| 2026-04-30 07:11 | 10.31553 | 123.97970 | 37 ft | 2 kts | 315° |
| 2026-04-30 07:11 | 10.31541 | 123.97982 | 35 ft | 2 kts | 315° |
| 2026-04-30 07:11 | 10.31530 | 123.97994 | 35 ft | 2 kts | 315° |
| 2026-04-30 07:11 | 10.31518 | 123.98005 | 36 ft | 2 kts | 310° |
| 2026-04-30 07:12 | 10.31509 | 123.98019 | 37 ft | 2 kts | 291° |
| 2026-04-30 07:12 | 10.31505 | 123.98035 | 37 ft | 2 kts | 261° |
| 2026-04-30 07:12 | 10.31510 | 123.98050 | 35 ft | 2 kts | 215° |
| 2026-04-30 07:12 | 10.31524 | 123.98058 | 34 ft | 2 kts | 220° |
| 2026-04-30 07:13 | 10.31525 | 123.98059 | 34 ft | 0 kts | 220° |
| 2026-04-30 07:17 | 10.31524 | 123.98058 | 34 ft | 2 kts | 220° |
| 2026-04-30 07:18 | 10.31488 | 123.98024 | 35 ft | 8 kts | 225° |
| 2026-04-30 07:18 | 10.31450 | 123.97986 | 35 ft | 7 kts | 225° |
| 2026-04-30 07:18 | 10.31418 | 123.97953 | 36 ft | 6 kts | 225° |
| 2026-04-30 07:18 | 10.31390 | 123.97925 | 37 ft | 5 kts | 225° |
| 2026-04-30 07:19 | 10.31357 | 123.97896 | 37 ft | 9 kts | 207° |
| 2026-04-30 07:19 | 10.31307 | 123.97911 | 37 ft | 7 kts | 135° |
| 2026-04-30 07:19 | 10.31278 | 123.97942 | 35 ft | 4 kts | 134° |
| 2026-04-30 07:19 | 10.31243 | 123.97978 | 37 ft | 10 kts | 134° |
| 2026-04-30 07:20 | 10.31193 | 123.97976 | 37 ft | 7 kts | 225° |
| 2026-04-30 07:20 | 10.31159 | 123.97941 | 36 ft | 10 kts | 224° |
| 2026-04-30 07:20 | 10.31073 | 123.97855 | 37 ft | 19 kts | 225° |
| 2026-04-30 07:20 | 10.30984 | 123.97765 | 37 ft | 17 kts | 225° |
| 2026-04-30 07:21 | 10.30902 | 123.97684 | 37 ft | 16 kts | 225° |
| 2026-04-30 07:21 | 10.30829 | 123.97611 | 37 ft | 14 kts | 225° |
| 2026-04-30 07:21 | 10.30763 | 123.97544 | 37 ft | 13 kts | 225° |
| 2026-04-30 07:21 | 10.30703 | 123.97483 | 36 ft | 12 kts | 225° |
| 2026-04-30 07:22 | 10.30598 | 123.97381 | 37 ft | 9 kts | 223° |
| 2026-04-30 07:22 | 10.30555 | 123.97337 | 37 ft | 8 kts | 225° |
| 2026-04-30 07:22 | 10.30516 | 123.97297 | 35 ft | 10 kts | 225° |
| 2026-04-30 07:23 | 10.30457 | 123.97237 | 37 ft | 12 kts | 225° |
| 2026-04-30 07:23 | 10.30402 | 123.97182 | 37 ft | 11 kts | 224° |
| 2026-04-30 07:23 | 10.30346 | 123.97165 | 37 ft | 9 kts | 141° |
| 2026-04-30 07:23 | 10.30308 | 123.97205 | 37 ft | 7 kts | 130° |
| 2026-04-30 07:24 | 10.30320 | 123.97240 | 37 ft | 5 kts | 40° |
| 2026-04-30 07:24 | 10.30335 | 123.97254 | 37 ft | 0 kts | 45° |
| 2026-04-30 07:25 | 10.30388 | 123.97308 | 37 ft | 40 kts | 45° |
| 2026-04-30 07:25 | 10.30764 | 123.97681 | 37 ft | 108 kts | 44° |
| 2026-04-30 07:25 | 10.31430 | 123.98340 | 53 ft | 156 kts | 44° |
| 2026-04-30 07:26 | 10.32200 | 123.99117 | 652 ft | 156 kts | 44° |
| 2026-04-30 07:26 | 10.32997 | 123.99913 | 1182 ft | 166 kts | 44° |
| 2026-04-30 07:26 | 10.33852 | 124.00770 | 1649 ft | 179 kts | 45° |
| 2026-04-30 07:26 | 10.34755 | 124.01687 | 2138 ft | 189 kts | 45° |
| 2026-04-30 07:27 | 10.35753 | 124.02691 | 2623 ft | 219 kts | 42° |
| 2026-04-30 07:27 | 10.37180 | 124.03387 | 3124 ft | 243 kts | 7° |
| 2026-04-30 07:27 | 10.38891 | 124.03035 | 3619 ft | 266 kts | 334° |
| 2026-04-30 07:27 | 10.40431 | 124.01929 | 4109 ft | 276 kts | 321° |
| 2026-04-30 07:28 | 10.41842 | 124.00591 | 4601 ft | 279 kts | 317° |
| 2026-04-30 07:28 | 10.43243 | 123.99217 | 5079 ft | 281 kts | 319° |
| 2026-04-30 07:28 | 10.44685 | 123.97874 | 5558 ft | 282 kts | 321° |
| 2026-04-30 07:28 | 10.46203 | 123.96556 | 6052 ft | 284 kts | 324° |
| 2026-04-30 07:29 | 10.47746 | 123.95293 | 6530 ft | 286 kts | 324° |
| 2026-04-30 07:29 | 10.49329 | 123.94046 | 6990 ft | 289 kts | 325° |
| 2026-04-30 07:29 | 10.50941 | 123.92801 | 7463 ft | 293 kts | 326° |
| 2026-04-30 07:29 | 10.52574 | 123.91550 | 7939 ft | 295 kts | 326° |
| 2026-04-30 07:30 | 10.55888 | 123.89020 | 8917 ft | 301 kts | 326° |
| 2026-04-30 07:30 | 10.57566 | 123.87737 | 9413 ft | 304 kts | 326° |
| 2026-04-30 07:30 | 10.59172 | 123.86321 | 9900 ft | 308 kts | 315° |
| 2026-04-30 07:31 | 10.60522 | 123.84597 | 10363 ft | 317 kts | 308° |
| 2026-04-30 07:31 | 10.61844 | 123.82748 | 10825 ft | 330 kts | 308° |
| 2026-04-30 07:31 | 10.63222 | 123.80832 | 11300 ft | 342 kts | 308° |
| 2026-04-30 07:31 | 10.64651 | 123.78853 | 11783 ft | 352 kts | 308° |
| 2026-04-30 07:32 | 10.66124 | 123.76816 | 12270 ft | 362 kts | 308° |
| 2026-04-30 07:32 | 10.67633 | 123.74725 | 12771 ft | 371 kts | 308° |
| 2026-04-30 07:32 | 10.69173 | 123.72588 | 13258 ft | 379 kts | 308° |
| 2026-04-30 07:32 | 10.70744 | 123.70409 | 13766 ft | 386 kts | 308° |
| 2026-04-30 07:33 | 10.72343 | 123.68190 | 14215 ft | 392 kts | 308° |
| 2026-04-30 07:33 | 10.73962 | 123.65935 | 14680 ft | 398 kts | 307° |
| 2026-04-30 07:33 | 10.75601 | 123.63648 | 15142 ft | 403 kts | 307° |
| 2026-04-30 07:33 | 10.77262 | 123.61333 | 15612 ft | 407 kts | 307° |
| 2026-04-30 07:34 | 10.78939 | 123.58995 | 16089 ft | 411 kts | 307° |
| 2026-04-30 07:34 | 10.80633 | 123.56637 | 16575 ft | 415 kts | 307° |
| 2026-04-30 07:34 | 10.82343 | 123.54257 | 17070 ft | 418 kts | 307° |
| 2026-04-30 07:34 | 10.84067 | 123.51858 | 17561 ft | 422 kts | 307° |
| 2026-04-30 07:35 | 10.85799 | 123.49445 | 18082 ft | 425 kts | 307° |
| 2026-04-30 07:35 | 10.87550 | 123.47010 | 18534 ft | 427 kts | 307° |
| 2026-04-30 07:35 | 10.89310 | 123.44563 | 18977 ft | 430 kts | 307° |
| 2026-04-30 07:35 | 10.91078 | 123.42101 | 19428 ft | 432 kts | 307° |
| 2026-04-30 07:36 | 10.93019 | 123.39770 | 19883 ft | 432 kts | 317° |
| 2026-04-30 07:36 | 10.95197 | 123.37664 | 20351 ft | 433 kts | 318° |
| 2026-04-30 07:36 | 10.97396 | 123.35555 | 20815 ft | 434 kts | 318° |
| 2026-04-30 07:36 | 10.99595 | 123.33447 | 21304 ft | 435 kts | 318° |
| 2026-04-30 07:37 | 11.01830 | 123.31305 | 21798 ft | 436 kts | 318° |
| 2026-04-30 07:37 | 11.04036 | 123.29189 | 22293 ft | 436 kts | 318° |
| 2026-04-30 07:37 | 11.06241 | 123.27073 | 22795 ft | 436 kts | 318° |
| 2026-04-30 07:37 | 11.08448 | 123.24951 | 23309 ft | 436 kts | 318° |
| 2026-04-30 07:38 | 11.10652 | 123.22827 | 23711 ft | 438 kts | 318° |
| 2026-04-30 07:38 | 11.12884 | 123.20679 | 23840 ft | 446 kts | 318° |
| 2026-04-30 07:38 | 11.15163 | 123.18487 | 23875 ft | 456 kts | 318° |
| 2026-04-30 07:38 | 11.17491 | 123.16245 | 23883 ft | 465 kts | 318° |
| 2026-04-30 07:39 | 11.19865 | 123.13958 | 23885 ft | 474 kts | 317° |
| 2026-04-30 07:39 | 11.22278 | 123.11633 | 23883 ft | 481 kts | 317° |
| 2026-04-30 07:39 | 11.24724 | 123.09272 | 23884 ft | 487 kts | 317° |
| 2026-04-30 07:39 | 11.27195 | 123.06887 | 23884 ft | 493 kts | 317° |
| 2026-04-30 07:40 | 11.29695 | 123.04475 | 23886 ft | 497 kts | 317° |
| 2026-04-30 07:40 | 11.32213 | 123.02045 | 23886 ft | 501 kts | 317° |
| 2026-04-30 07:40 | 11.34750 | 122.99599 | 23878 ft | 503 kts | 317° |
| 2026-04-30 07:40 | 11.36436 | 122.97975 | 23885 ft | 505 kts | 317° |
| 2026-04-30 07:41 | 11.39025 | 122.95480 | 23887 ft | 506 kts | 317° |
| 2026-04-30 07:41 | 11.41555 | 122.93042 | 23878 ft | 507 kts | 317° |
| 2026-04-30 07:41 | 11.44152 | 122.90536 | 23884 ft | 508 kts | 317° |
| 2026-04-30 07:41 | 11.46718 | 122.88060 | 23888 ft | 508 kts | 317° |
| 2026-04-30 07:42 | 11.49289 | 122.85578 | 23889 ft | 509 kts | 317° |
| 2026-04-30 07:42 | 11.51857 | 122.83095 | 23887 ft | 509 kts | 317° |
| 2026-04-30 07:42 | 11.54424 | 122.80613 | 23883 ft | 509 kts | 317° |
| 2026-04-30 07:42 | 11.56939 | 122.78067 | 23876 ft | 510 kts | 312° |
| 2026-04-30 07:43 | 11.59008 | 122.75130 | 23883 ft | 511 kts | 300° |
| 2026-04-30 07:43 | 11.60479 | 122.71826 | 23883 ft | 512 kts | 289° |
| 2026-04-30 07:43 | 11.61379 | 122.68312 | 23888 ft | 513 kts | 283° |
| 2026-04-30 07:43 | 11.62194 | 122.64771 | 23890 ft | 513 kts | 283° |
| 2026-04-30 07:44 | 11.63014 | 122.61232 | 23893 ft | 512 kts | 283° |
| 2026-04-30 07:44 | 11.63837 | 122.57700 | 23897 ft | 512 kts | 283° |
| 2026-04-30 07:44 | 11.64663 | 122.54165 | 23894 ft | 512 kts | 283° |
| 2026-04-30 07:44 | 11.65495 | 122.50633 | 23898 ft | 512 kts | 284° |
| 2026-04-30 07:45 | 11.66325 | 122.47101 | 23898 ft | 512 kts | 283° |
| 2026-04-30 07:45 | 11.67149 | 122.43569 | 23896 ft | 512 kts | 283° |
| 2026-04-30 07:45 | 11.68081 | 122.40078 | 23874 ft | 506 kts | 290° |
| 2026-04-30 07:45 | 11.69568 | 122.36906 | 23462 ft | 489 kts | 303° |
| 2026-04-30 07:46 | 11.71578 | 122.34179 | 22944 ft | 475 kts | 310° |
| 2026-04-30 07:46 | 11.73633 | 122.31591 | 22431 ft | 464 kts | 310° |
| 2026-04-30 07:46 | 11.75642 | 122.29054 | 21934 ft | 455 kts | 310° |
| 2026-04-30 07:46 | 11.77610 | 122.26560 | 21445 ft | 448 kts | 310° |
| 2026-04-30 07:47 | 11.79545 | 122.24101 | 20960 ft | 441 kts | 310° |
| 2026-04-30 07:47 | 11.81449 | 122.21675 | 20478 ft | 435 kts | 310° |
| 2026-04-30 07:47 | 11.83328 | 122.19280 | 20012 ft | 430 kts | 310° |
| 2026-04-30 07:47 | 11.85209 | 122.16881 | 19546 ft | 425 kts | 310° |
| 2026-04-30 07:48 | 11.87047 | 122.14536 | 19091 ft | 421 kts | 310° |
| 2026-04-30 07:48 | 11.88869 | 122.12212 | 18641 ft | 417 kts | 310° |
| 2026-04-30 07:48 | 11.90673 | 122.09908 | 18198 ft | 413 kts | 310° |
| 2026-04-30 07:48 | 11.92459 | 122.07629 | 17696 ft | 410 kts | 310° |
| 2026-04-30 07:49 | 11.94233 | 122.05366 | 17192 ft | 406 kts | 310° |
| 2026-04-30 07:49 | 11.95994 | 122.03124 | 16699 ft | 403 kts | 310° |
| 2026-04-30 07:49 | 11.97739 | 122.00899 | 16209 ft | 400 kts | 310° |
| 2026-04-30 07:49 | 11.99468 | 121.98690 | 15734 ft | 397 kts | 310° |
| 2026-04-30 07:50 | 12.01182 | 121.96498 | 15267 ft | 393 kts | 309° |
| 2026-04-30 07:50 | 12.02633 | 121.94148 | 14800 ft | 392 kts | 291° |
| 2026-04-30 07:50 | 12.03082 | 121.91455 | 14341 ft | 380 kts | 266° |
| 2026-04-30 07:50 | 12.02416 | 121.88932 | 13892 ft | 362 kts | 240° |
| 2026-04-30 07:51 | 12.01115 | 121.86787 | 13415 ft | 348 kts | 234° |
| 2026-04-30 07:51 | 11.99708 | 121.84829 | 12915 ft | 337 kts | 231° |
| 2026-04-30 07:51 | 11.98294 | 121.82967 | 12421 ft | 327 kts | 230° |
| 2026-04-30 07:51 | 11.96926 | 121.81155 | 11932 ft | 318 kts | 231° |
| 2026-04-30 07:52 | 11.95610 | 121.79378 | 11449 ft | 310 kts | 231° |
| 2026-04-30 07:52 | 11.94328 | 121.77635 | 10980 ft | 303 kts | 231° |
| 2026-04-30 07:52 | 11.93079 | 121.75930 | 10507 ft | 297 kts | 231° |
| 2026-04-30 07:52 | 11.91856 | 121.74257 | 10051 ft | 291 kts | 231° |
| 2026-04-30 07:53 | 11.90659 | 121.72618 | 9580 ft | 285 kts | 231° |
| 2026-04-30 07:53 | 11.89485 | 121.71009 | 9087 ft | 280 kts | 231° |
| 2026-04-30 07:53 | 11.88297 | 121.69465 | 8588 ft | 272 kts | 221° |
| 2026-04-30 07:53 | 11.86733 | 121.68495 | 8114 ft | 260 kts | 194° |
| 2026-04-30 07:54 | 11.84981 | 121.68298 | 7630 ft | 250 kts | 169° |
| 2026-04-30 07:54 | 11.83368 | 121.68813 | 7153 ft | 240 kts | 147° |
| 2026-04-30 07:54 | 11.82120 | 121.69883 | 6685 ft | 232 kts | 125° |
| 2026-04-30 07:54 | 11.81380 | 121.71312 | 6227 ft | 227 kts | 104° |
| 2026-04-30 07:55 | 11.81206 | 121.72890 | 5743 ft | 224 kts | 85° |
| 2026-04-30 07:55 | 11.81597 | 121.74418 | 5260 ft | 223 kts | 65° |
| 2026-04-30 07:55 | 11.82414 | 121.75760 | 4786 ft | 222 kts | 58° |
| 2026-04-30 07:55 | 11.83262 | 121.77095 | 4292 ft | 220 kts | 61° |
| 2026-04-30 07:56 | 11.83999 | 121.78454 | 3809 ft | 218 kts | 64° |
| 2026-04-30 07:56 | 11.84690 | 121.79822 | 3332 ft | 216 kts | 65° |
| 2026-04-30 07:56 | 11.85364 | 121.81184 | 2848 ft | 214 kts | 65° |
| 2026-04-30 07:56 | 11.86009 | 121.82514 | 2639 ft | 201 kts | 65° |
| 2026-04-30 07:57 | 11.86627 | 121.83769 | 2446 ft | 194 kts | 64° |
| 2026-04-30 07:57 | 11.87233 | 121.84975 | 2197 ft | 188 kts | 64° |
| 2026-04-30 07:57 | 11.87817 | 121.86139 | 1950 ft | 181 kts | 62° |
| 2026-04-30 07:57 | 11.88378 | 121.87270 | 1718 ft | 177 kts | 63° |
| 2026-04-30 07:58 | 11.88930 | 121.88375 | 1484 ft | 174 kts | 63° |
| 2026-04-30 07:58 | 11.89478 | 121.89464 | 1255 ft | 170 kts | 62° |
| 2026-04-30 07:58 | 11.89990 | 121.90493 | 1051 ft | 155 kts | 62° |
| 2026-04-30 07:58 | 11.90464 | 121.91436 | 847 ft | 146 kts | 62° |
| 2026-04-30 07:59 | 11.90926 | 121.92350 | 662 ft | 143 kts | 64° |
| 2026-04-30 07:59 | 11.91383 | 121.93256 | 460 ft | 147 kts | 63° |
| 2026-04-30 07:59 | 11.91851 | 121.94188 | 271 ft | 146 kts | 63° |
| 2026-04-30 08:00 | 11.92695 | 121.95874 | 26 ft | 92 kts | 61° |
| 2026-04-30 08:00 | 11.92899 | 121.96277 | 25 ft | 42 kts | 63° |
| 2026-04-30 08:00 | 11.92974 | 121.96437 | 24 ft | 11 kts | 90° |
| 2026-04-30 08:00 | 11.92932 | 121.96472 | 25 ft | 6 kts | 145° |
| 2026-04-30 08:01 | 11.92904 | 121.96488 | 27 ft | 3 kts | 153° |
| 2026-04-30 08:01 | 11.92885 | 121.96498 | 27 ft | 7 kts | 153° |
| 2026-04-30 08:01 | 11.92799 | 121.96528 | 26 ft | 8 kts | 208° |
| 2026-04-30 08:01 | 11.92788 | 121.96501 | 26 ft | 3 kts | 246° |
| 2026-04-30 08:02 | 11.92706 | 121.96338 | 26 ft | 16 kts | 243° |
| 2026-04-30 08:02 | 11.92657 | 121.96239 | 26 ft | 15 kts | 243° |
| 2026-04-30 08:03 | 11.92543 | 121.96241 | 26 ft | 7 kts | 152° |
| 2026-04-30 08:03 | 11.92542 | 121.96289 | 26 ft | 1 kts | 63° |
| 2026-04-30 08:03 | 11.92542 | 121.96290 | 26 ft | 0 kts | 63° |